Duke Field,(Eglin Af Aux Nr 3) Airport
KEGI : now visible

Airfield :











YOU CAN JOIN US ON...

 
LOGIN :

Register | Disclaimer

   EN    FR    IT 

 









Legend :    VFR   Marginal VFR   IFR   Intensive IFR   Very Intensive IFR
Visi :
Ceiling :
>= 8 km
>= 3000ft
5 to 8 km
1000 to 3000 ft
1500m to 5 km
500 to 1000 ft
800 to 1500m
200 to 500 ft
< 800m
< 200 ft
Symbols :   Thunderstorms  Fog  Heavy snow  Heavy precipitations  Wind > 20 kt






- Airport Elevation : 191 ft


KEGI - Duke Field,(Eglin Af Aux Nr 3)

CURRENT METAR :
  • 170321Z AUTO 00000KT 10SM BKN005 25/23 A3003 RMK AO2 CIG 005V007 SLP168 $

EXPIRED METARs :
  • 170255Z AUTO 00000KT 10SM BKN007 OVC150 25/23 A3003 RMK AO2 SLP168 60005 T02470233 50001 $
  • 170155Z AUTO 15004KT 10SM BKN140 BKN200 25/24 A3002 RMK AO2 RAE05DZB05E10DZB15E27RAB28E29 SLP164 P0000 T02500236 $
  • 170129Z AUTO 10004KT 10SM M 25/23 A3002 RMK AO2 RAE05DZB05E10DZB15E27RAB28E29 SLP165 CHINO RWY18 $
  • 170115Z AUTO 11003KT 10SM -DZ M 25/23 A3002 RMK AO2 RAE05DZB05E10DZB15 SLP164 CHINO RWY18 $
  • 170110Z AUTO 13003KT 10SM M 25/23 A3003 RMK AO2 RAE05DZB05E10 SLP168 CHINO RWY18 $
  • 170055Z AUTO 14004KT 10SM -RA M 25/23 A3003 RMK AO2 SLP168 P0005 T02450231 CHINO RWY18 $
  • 162355Z AUTO 00000KT 10SM -RA M 26/22 A3003 RMK AO2 RAB26 SLP168 P0001 60001 T02640216 10335 20264 53001 CHINO RWY18 $
  • 162326Z AUTO 00000KT 10SM -RA M 27/21 A3002 RMK AO2 RAB26 SLP165 CHINO RWY18 $
  • 162255Z AUTO 00000KT 10SM M 27/21 A3001 RMK AO2 SLP161 T02700213 CHINO RWY18 $

Expired Forecast.
KZJX FIR / North America



MET'MAP, your aeronautical weather chart ! - Copyright ORBIFLY December 2007 - Disclaimer

ORBIFLY MET'MAP TEAM :

Programming & Development : Alexandra Zaïnal
Original concept : Baudouin d'Aumeries
Technical & hardware support : Manuel Goepfert
Assistance : Marc-Olivier Méhu




SOURCES & CREDITS :

   NOAA       Earth
Advisory